createdAt,value
2023-01-17T00:00:45.251Z,2.40
2023-01-17T00:03:11.377Z,1.80
2023-01-17T00:05:40.348Z,2.20
2023-01-17T00:08:06.572Z,2.38
2023-01-17T00:10:32.740Z,1.85
2023-01-17T00:12:58.918Z,1.60
2023-01-17T00:15:25.078Z,1.70
2023-01-17T00:17:51.224Z,1.92
2023-01-17T00:20:19.301Z,2.05
2023-01-17T00:22:46.320Z,1.40
2023-01-17T00:25:12.432Z,1.70
2023-01-17T00:27:41.545Z,1.65
2023-01-17T00:30:07.748Z,2.08
2023-01-17T00:32:33.919Z,1.40
2023-01-17T00:35:00.088Z,1.80
2023-01-17T00:37:26.299Z,1.80
2023-01-17T00:39:57.140Z,1.45
2023-01-17T00:42:23.255Z,1.75
2023-01-17T00:44:49.426Z,1.33
2023-01-17T00:47:17.423Z,2.35
2023-01-17T00:49:43.610Z,1.58
2023-01-17T00:52:09.771Z,1.60
2023-01-17T00:54:35.930Z,2.17
2023-01-17T00:57:02.101Z,2.00
2023-01-17T00:59:28.273Z,1.98
2023-01-17T01:01:54.617Z,1.75
2023-01-17T01:04:20.814Z,1.58
2023-01-17T01:06:46.944Z,1.40
2023-01-17T01:09:13.062Z,2.15
2023-01-17T01:11:39.262Z,1.77
2023-01-17T01:14:05.392Z,1.90
2023-01-17T01:16:31.620Z,1.77
2023-01-17T01:18:57.760Z,1.80
2023-01-17T01:21:27.985Z,1.70
2023-01-17T01:23:54.211Z,1.77
2023-01-17T01:26:20.367Z,1.52
2023-01-17T01:28:46.557Z,1.85
2023-01-17T01:31:12.786Z,1.52
2023-01-17T01:33:39.048Z,1.77
2023-01-17T01:36:05.399Z,1.55
2023-01-17T01:38:31.606Z,1.85
2023-01-17T01:40:57.763Z,1.88
2023-01-17T01:43:23.916Z,1.67
2023-01-17T01:45:50.141Z,1.67
2023-01-17T01:48:21.058Z,1.25
2023-01-17T01:50:47.256Z,1.50
2023-01-17T01:53:13.442Z,1.75
2023-01-17T01:55:44.391Z,1.45
2023-01-17T01:58:10.580Z,2.25
2023-01-17T02:00:36.761Z,1.95
2023-01-17T02:03:02.932Z,2.30
2023-01-17T02:05:29.073Z,2.13
2023-01-17T02:07:55.253Z,2.90
2023-01-17T02:10:21.413Z,2.03
2023-01-17T02:12:47.587Z,3.15
2023-01-17T02:15:13.784Z,2.67
2023-01-17T02:17:39.913Z,2.47
2023-01-17T02:20:06.082Z,2.55
2023-01-17T02:22:32.233Z,2.40
2023-01-17T02:25:00.449Z,2.40
2023-01-17T02:27:26.628Z,2.42
2023-01-17T02:29:52.796Z,2.75
2023-01-17T02:34:59.065Z,2.85
2023-01-17T02:37:25.243Z,2.15
2023-01-17T02:39:51.449Z,2.20
2023-01-17T02:42:17.601Z,2.83
2023-01-17T02:44:43.778Z,2.38
2023-01-17T02:47:09.909Z,2.63
2023-01-17T02:49:36.051Z,2.35
2023-01-17T02:52:02.287Z,3.05
2023-01-17T02:54:28.454Z,2.03
2023-01-17T02:56:54.584Z,2.35
2023-01-17T02:59:20.750Z,2.60
2023-01-17T03:01:46.990Z,2.30
2023-01-17T03:04:13.238Z,2.03
2023-01-17T03:06:39.446Z,1.58
2023-01-17T03:09:10.715Z,1.60
2023-01-17T03:11:39.204Z,0.90
2023-01-17T03:14:05.351Z,1.55
2023-01-17T03:16:31.589Z,1.10
2023-01-17T03:18:57.815Z,0.98
2023-01-17T03:21:25.036Z,1.48
2023-01-17T03:23:51.370Z,1.70
2023-01-17T03:26:22.318Z,1.70
2023-01-17T03:28:48.436Z,1.60
2023-01-17T03:31:14.654Z,1.48
2023-01-17T03:33:40.866Z,1.58
2023-01-17T03:36:07.109Z,1.65
2023-01-17T03:38:33.260Z,1.90
2023-01-17T03:40:59.416Z,1.80
2023-01-17T03:43:25.637Z,1.58
2023-01-17T03:45:51.858Z,1.77
2023-01-17T03:48:18.055Z,1.55
2023-01-17T03:50:44.192Z,1.83
2023-01-17T03:53:10.353Z,1.75
2023-01-17T03:55:36.544Z,1.85
2023-01-17T03:58:02.755Z,2.13
2023-01-17T04:00:28.932Z,2.22
2023-01-17T04:03:03.938Z,2.05
2023-01-17T04:05:36.820Z,2.10
2023-01-17T04:08:02.990Z,2.33
2023-01-17T04:10:29.111Z,2.42
2023-01-17T04:13:03.736Z,2.83
2023-01-17T04:15:29.962Z,2.50
2023-01-17T04:17:56.223Z,2.90
2023-01-17T04:20:22.431Z,1.83
2023-01-17T04:22:48.579Z,3.10
2023-01-17T04:25:17.740Z,2.72
2023-01-17T04:27:43.903Z,2.35
2023-01-17T04:30:10.114Z,2.50
2023-01-17T04:32:36.314Z,3.05
2023-01-17T04:35:02.472Z,2.88
2023-01-17T04:37:28.603Z,3.10
2023-01-17T04:39:57.740Z,3.03
2023-01-17T04:42:23.996Z,3.35
2023-01-17T04:44:50.142Z,2.85
2023-01-17T04:47:23.538Z,3.22
2023-01-17T04:49:49.723Z,3.80
2023-01-17T04:52:15.884Z,3.38
2023-01-17T04:54:42.021Z,3.17
2023-01-17T04:57:08.176Z,3.17
2023-01-17T04:59:35.595Z,4.07
2023-01-17T05:02:01.841Z,3.92
2023-01-17T05:04:28.147Z,4.53
2023-01-17T05:06:54.403Z,4.43
2023-01-17T05:09:22.117Z,4.45
2023-01-17T05:11:48.255Z,4.35
2023-01-17T05:14:14.435Z,3.13
2023-01-17T05:16:40.647Z,3.00
2023-01-17T05:19:06.880Z,3.10
2023-01-17T05:21:36.107Z,2.80
2023-01-17T05:24:04.384Z,3.30
2023-01-17T05:26:30.661Z,2.78
2023-01-17T05:28:56.904Z,2.72
2023-01-17T05:31:26.833Z,2.90
2023-01-17T05:33:53.103Z,2.92
2023-01-17T05:36:21.163Z,2.75
2023-01-17T05:38:52.434Z,2.67
2023-01-17T05:41:18.642Z,3.17
2023-01-17T05:43:44.837Z,2.83
2023-01-17T05:46:13.008Z,3.38
2023-01-17T05:48:39.277Z,3.17
2023-01-17T05:51:05.496Z,3.90
2023-01-17T05:53:31.665Z,3.33
2023-01-17T05:55:57.862Z,3.40
2023-01-17T05:58:26.831Z,3.75
2023-01-17T06:00:53.038Z,3.15
2023-01-17T06:03:19.202Z,3.58
2023-01-17T06:05:45.385Z,3.53
2023-01-17T06:08:11.565Z,3.30
2023-01-17T06:10:37.765Z,3.10
2023-01-17T06:13:03.898Z,3.70
2023-01-17T06:15:31.510Z,3.08
2023-01-17T06:17:57.699Z,3.38
2023-01-17T06:20:23.889Z,3.25
2023-01-17T06:22:52.068Z,3.25
2023-01-17T06:25:18.315Z,3.30
2023-01-17T06:27:44.521Z,3.20
2023-01-17T06:30:13.701Z,3.22
2023-01-17T06:32:39.912Z,3.20
2023-01-17T06:35:06.094Z,3.22
2023-01-17T06:37:33.457Z,3.50
2023-01-17T06:39:59.667Z,3.55
2023-01-17T06:42:25.898Z,3.67
2023-01-17T06:44:57.924Z,3.58
2023-01-17T06:47:24.070Z,3.53
2023-01-17T06:49:50.263Z,2.80
2023-01-17T06:52:16.435Z,3.10
2023-01-17T06:54:42.591Z,3.40
2023-01-17T06:57:08.800Z,3.60
2023-01-17T06:59:35.027Z,3.58
2023-01-17T07:02:01.155Z,3.17
2023-01-17T07:04:27.389Z,3.60
2023-01-17T07:06:53.644Z,3.17
2023-01-17T07:12:22.409Z,3.45
2023-01-17T07:14:48.605Z,3.47
2023-01-17T07:17:14.778Z,3.50
2023-01-17T07:19:41.035Z,3.30
2023-01-17T07:22:07.235Z,3.33
2023-01-17T07:24:33.427Z,3.25
2023-01-17T07:26:59.665Z,3.40
2023-01-17T07:29:25.893Z,3.70
2023-01-17T07:31:52.053Z,3.60
2023-01-17T07:34:18.269Z,3.33
2023-01-17T07:36:44.458Z,3.58
2023-01-17T07:39:10.686Z,3.13
2023-01-17T07:41:36.946Z,3.33
2023-01-17T07:44:03.147Z,3.60
2023-01-17T07:46:32.205Z,3.58
2023-01-17T07:48:58.483Z,3.53
2023-01-17T07:51:24.664Z,3.22
2023-01-17T07:53:50.846Z,3.63
2023-01-17T07:56:17.053Z,3.03
2023-01-17T07:58:43.243Z,3.47
2023-01-17T08:01:09.655Z,4.00
2023-01-17T08:03:35.915Z,4.97
2023-01-17T08:06:02.157Z,4.55
2023-01-17T08:08:31.153Z,6.15
2023-01-17T08:10:57.395Z,6.10
2023-01-17T08:13:23.641Z,5.05
2023-01-17T08:15:54.731Z,4.60
2023-01-17T08:18:21.048Z,4.05
2023-01-17T08:20:47.268Z,4.03
2023-01-17T08:23:14.693Z,5.40
2023-01-17T08:25:41.564Z,5.53
2023-01-17T08:28:07.847Z,6.15
2023-01-17T08:30:34.072Z,6.18
2023-01-17T08:33:02.997Z,5.18
2023-01-17T08:35:29.232Z,5.75
2023-01-17T08:37:55.494Z,5.57
2023-01-17T08:40:23.692Z,6.13
2023-01-17T08:42:49.863Z,5.57
2023-01-17T08:45:16.120Z,5.10
2023-01-17T08:47:42.374Z,5.72
2023-01-17T08:50:09.655Z,5.53
2023-01-17T08:52:36.969Z,5.07
2023-01-17T08:55:04.383Z,5.05
2023-01-17T08:57:30.640Z,5.72
2023-01-17T08:59:56.912Z,6.57
2023-01-17T09:02:27.918Z,5.63
2023-01-17T09:04:54.094Z,5.55
2023-01-17T09:07:20.370Z,4.85
2023-01-17T09:09:47.745Z,4.43
2023-01-17T09:12:13.970Z,4.53
2023-01-17T09:14:40.193Z,5.00
2023-01-17T09:17:06.494Z,5.88
2023-01-17T09:19:40.727Z,4.82
2023-01-17T09:22:06.947Z,5.07
2023-01-17T09:24:33.200Z,5.35
2023-01-17T09:27:00.821Z,4.60
2023-01-17T09:29:27.047Z,4.93
2023-01-17T09:31:53.200Z,5.72
2023-01-17T09:34:21.765Z,4.47
2023-01-17T09:36:48.026Z,4.60
2023-01-17T09:39:14.211Z,4.68
2023-01-17T09:41:43.145Z,3.88
2023-01-17T09:44:09.310Z,4.22
2023-01-17T09:46:35.485Z,3.70
2023-01-17T09:49:04.380Z,3.70
2023-01-17T09:51:30.517Z,3.70
2023-01-17T09:53:56.750Z,3.75
2023-01-17T09:56:27.888Z,4.13
2023-01-17T09:58:54.113Z,4.13
2023-01-17T10:01:20.517Z,4.47
2023-01-17T10:03:46.820Z,4.43
2023-01-17T10:06:12.986Z,3.80
2023-01-17T10:08:48.313Z,3.20
2023-01-17T10:11:14.502Z,3.38
2023-01-17T10:13:40.694Z,3.65
2023-01-17T10:16:06.852Z,3.28
2023-01-17T10:18:36.034Z,3.20
2023-01-17T10:21:02.246Z,3.20
2023-01-17T10:23:28.422Z,3.80
2023-01-17T10:25:57.485Z,3.65
2023-01-17T10:28:23.634Z,3.55
2023-01-17T10:30:49.869Z,3.60
2023-01-17T10:33:19.049Z,3.20
2023-01-17T10:35:45.226Z,3.75
2023-01-17T10:38:11.412Z,3.28
2023-01-17T10:40:37.566Z,3.22
2023-01-17T10:43:03.744Z,3.50
2023-01-17T10:45:29.973Z,2.78
2023-01-17T10:47:57.688Z,3.13
2023-01-17T10:50:23.868Z,2.72
2023-01-17T10:52:50.045Z,3.45
2023-01-17T10:55:19.082Z,3.05
2023-01-17T10:57:45.221Z,3.50
2023-01-17T11:00:11.453Z,3.80
2023-01-17T11:02:37.694Z,3.65
2023-01-17T11:05:03.922Z,2.63
2023-01-17T11:07:30.115Z,3.33
2023-01-17T11:09:56.286Z,2.95
2023-01-17T11:12:22.452Z,3.33
2023-01-17T11:14:48.602Z,2.65
2023-01-17T11:17:14.828Z,2.45
2023-01-17T11:19:40.978Z,2.70
2023-01-17T11:22:12.896Z,2.78
2023-01-17T11:24:39.151Z,3.10
2023-01-17T11:27:05.393Z,2.65
2023-01-17T11:29:36.072Z,2.15
2023-01-17T11:32:03.223Z,2.63
2023-01-17T11:34:29.462Z,2.90
2023-01-17T11:36:55.697Z,3.03
2023-01-17T11:39:21.924Z,2.72
2023-01-17T11:41:49.295Z,2.30
2023-01-17T11:44:21.500Z,3.17
2023-01-17T11:46:47.922Z,2.33
2023-01-17T11:49:14.242Z,2.63
2023-01-17T11:51:40.471Z,2.92
2023-01-17T11:54:06.770Z,2.33
2023-01-17T11:56:33.004Z,2.00
2023-01-17T11:59:00.671Z,1.80
2023-01-17T12:01:26.842Z,2.10
2023-01-17T12:03:53.125Z,1.80
2023-01-17T12:06:19.386Z,2.70
2023-01-17T12:08:45.606Z,2.10
2023-01-17T12:11:11.775Z,1.73
2023-01-17T12:13:37.985Z,1.77
2023-01-17T12:16:04.197Z,2.00
2023-01-17T12:18:30.486Z,1.80
2023-01-17T12:20:56.653Z,2.15
2023-01-17T12:23:22.880Z,1.73
2023-01-17T12:25:49.220Z,2.20
2023-01-17T12:28:15.558Z,1.45
2023-01-17T12:30:41.803Z,1.60
2023-01-17T12:33:08.063Z,2.08
2023-01-17T12:35:34.256Z,1.90
2023-01-17T12:38:06.645Z,1.90
2023-01-17T12:40:32.889Z,2.22
2023-01-17T12:42:59.120Z,1.45
2023-01-17T12:45:25.270Z,1.48
2023-01-17T12:47:51.457Z,1.38
2023-01-17T12:50:17.702Z,1.70
2023-01-17T12:52:47.076Z,2.20
2023-01-17T12:55:13.241Z,1.50
2023-01-17T12:57:39.456Z,1.25
2023-01-17T13:00:05.684Z,1.48
2023-01-17T13:02:31.980Z,1.00
2023-01-17T13:05:00.218Z,1.38
2023-01-17T13:07:26.406Z,1.60
2023-01-17T13:09:52.646Z,1.33
2023-01-17T13:12:18.858Z,1.75
2023-01-17T13:14:45.104Z,1.40
2023-01-17T13:17:12.615Z,1.58
2023-01-17T13:19:38.818Z,1.25
2023-01-17T13:22:04.977Z,1.92
2023-01-17T13:24:35.643Z,1.60
2023-01-17T13:27:01.791Z,1.23
2023-01-17T13:29:27.980Z,1.40
2023-01-17T13:31:54.201Z,1.10
2023-01-17T13:34:20.446Z,1.20
2023-01-17T13:36:46.641Z,1.20
2023-01-17T13:39:12.874Z,1.58
2023-01-17T13:41:41.860Z,1.48
2023-01-17T13:44:08.017Z,1.50
2023-01-17T13:46:34.261Z,1.70
2023-01-17T13:49:00.472Z,1.30
2023-01-17T13:51:26.641Z,1.35
2023-01-17T13:53:52.822Z,1.70
2023-01-17T13:56:18.960Z,1.70
2023-01-17T13:58:54.556Z,1.10
2023-01-17T14:01:21.165Z,1.42
2023-01-17T14:03:47.558Z,2.15
2023-01-17T14:06:13.862Z,1.58
2023-01-17T14:08:40.070Z,2.05
2023-01-17T14:11:07.945Z,2.00
2023-01-17T14:13:35.873Z,2.10
2023-01-17T14:16:04.860Z,1.88
2023-01-17T14:18:31.061Z,1.70
2023-01-17T14:20:57.309Z,1.63
2023-01-17T14:23:23.476Z,1.75
2023-01-17T14:25:49.617Z,1.38
2023-01-17T14:28:23.209Z,1.83
2023-01-17T14:30:49.426Z,1.63
2023-01-17T14:33:15.656Z,1.55
2023-01-17T14:35:41.900Z,1.65
2023-01-17T14:38:08.075Z,1.60
2023-01-17T14:40:34.244Z,1.75
2023-01-17T14:43:00.465Z,1.80
2023-01-17T14:45:26.760Z,1.73
2023-01-17T14:47:52.951Z,2.47
2023-01-17T14:50:19.214Z,2.03
2023-01-17T14:52:45.407Z,1.50
2023-01-17T14:55:11.657Z,1.30
2023-01-17T14:57:37.818Z,1.58
2023-01-17T15:00:04.084Z,1.70
2023-01-17T15:02:30.519Z,1.40
2023-01-17T15:04:58.761Z,1.50
2023-01-17T15:07:24.928Z,2.10
2023-01-17T15:09:51.105Z,2.15
2023-01-17T15:12:17.278Z,3.78
2023-01-17T15:14:43.463Z,2.25
2023-01-17T15:17:09.656Z,2.38
2023-01-17T15:19:35.817Z,1.50
2023-01-17T15:22:02.035Z,1.90
2023-01-17T15:24:28.241Z,1.70
2023-01-17T15:26:54.411Z,1.75
2023-01-17T15:29:20.638Z,1.67
2023-01-17T15:31:46.844Z,1.48
2023-01-17T15:34:13.052Z,1.85
2023-01-17T15:36:39.211Z,1.70
2023-01-17T15:39:05.354Z,1.70
2023-01-17T15:41:31.540Z,1.92
2023-01-17T15:43:57.720Z,1.73
2023-01-17T15:46:23.943Z,2.10
2023-01-17T15:48:50.175Z,1.88
2023-01-17T15:51:16.324Z,1.92
2023-01-17T15:53:42.524Z,1.85
2023-01-17T15:56:08.745Z,2.28
2023-01-17T15:58:34.945Z,2.30
2023-01-17T16:01:01.247Z,2.25
2023-01-17T16:03:27.566Z,2.65
2023-01-17T16:05:53.741Z,1.80
2023-01-17T16:08:19.938Z,2.00
2023-01-17T16:10:46.144Z,3.40
2023-01-17T16:13:12.336Z,3.60
2023-01-17T16:15:38.571Z,3.53
2023-01-17T16:18:04.814Z,4.97
2023-01-17T16:20:31.036Z,5.13
2023-01-17T16:22:57.229Z,5.32
2023-01-17T16:25:23.418Z,4.55
2023-01-17T16:27:49.855Z,3.17
2023-01-17T16:30:16.247Z,4.05
2023-01-17T16:32:42.431Z,4.63
2023-01-17T16:35:08.635Z,3.88
2023-01-17T16:37:34.851Z,3.83
2023-01-17T16:40:01.017Z,4.30
2023-01-17T16:42:28.556Z,3.92
2023-01-17T16:44:54.890Z,2.92
2023-01-17T16:47:21.063Z,3.65
2023-01-17T16:49:47.208Z,3.50
2023-01-17T16:52:13.405Z,3.45
2023-01-17T16:54:39.721Z,4.00
2023-01-17T16:57:05.903Z,3.97
2023-01-17T16:59:42.505Z,3.90
2023-01-17T17:02:15.940Z,3.45
2023-01-17T17:04:42.191Z,3.00
2023-01-17T17:07:08.389Z,5.25
2023-01-17T17:09:34.566Z,3.40
2023-01-17T17:12:00.751Z,3.08
2023-01-17T17:14:26.931Z,3.13
2023-01-17T17:16:53.094Z,3.28
2023-01-17T17:19:19.281Z,3.30
2023-01-17T17:21:45.436Z,2.70
2023-01-17T17:24:11.647Z,2.70
2023-01-17T17:26:37.769Z,2.53
2023-01-17T17:29:03.995Z,2.70
2023-01-17T17:31:30.291Z,3.15
2023-01-17T17:33:56.504Z,3.05
2023-01-17T17:36:22.727Z,2.78
2023-01-17T17:38:48.997Z,2.63
2023-01-17T17:41:15.214Z,2.30
2023-01-17T17:43:41.453Z,2.83
2023-01-17T17:46:07.702Z,2.60
2023-01-17T17:48:33.938Z,2.20
2023-01-17T17:51:00.163Z,2.22
2023-01-17T17:53:26.408Z,1.73
2023-01-17T17:55:52.671Z,2.10
2023-01-17T17:58:18.839Z,2.80
2023-01-17T18:00:45.014Z,2.40
2023-01-17T18:03:11.203Z,1.90
2023-01-17T18:05:37.348Z,2.88
2023-01-17T18:08:03.544Z,2.55
2023-01-17T18:10:29.684Z,2.63
2023-01-17T18:12:55.851Z,2.97
2023-01-17T18:15:22.219Z,2.22
2023-01-17T18:17:48.671Z,2.65
2023-01-17T18:20:14.888Z,2.30
2023-01-17T18:22:42.032Z,2.55
2023-01-17T18:26:11.231Z,2.88
2023-01-17T18:27:55.809Z,3.35
2023-01-17T18:30:22.145Z,3.35
2023-01-17T18:32:48.456Z,3.47
2023-01-17T18:35:14.650Z,3.00
2023-01-17T18:37:40.890Z,3.20
2023-01-17T18:40:07.081Z,3.88
2023-01-17T18:42:33.297Z,2.92
2023-01-17T18:44:59.561Z,2.80
2023-01-17T18:47:25.768Z,3.30
2023-01-17T18:49:52.093Z,3.33
2023-01-17T18:52:18.237Z,2.90
2023-01-17T18:54:44.595Z,2.83
2023-01-17T18:57:10.860Z,3.55
2023-01-17T18:59:37.063Z,2.60
2023-01-17T19:02:03.294Z,3.30
2023-01-17T19:04:29.656Z,3.17
2023-01-17T19:06:55.863Z,3.35
2023-01-17T19:09:22.072Z,3.22
2023-01-17T19:11:48.273Z,24.13
2023-01-17T19:14:14.570Z,14.80
2023-01-17T19:16:40.915Z,27.70
2023-01-17T19:19:07.177Z,24.67
2023-01-17T19:21:33.367Z,19.40
2023-01-17T19:23:59.557Z,16.33
2023-01-17T19:26:25.780Z,6.82
2023-01-17T19:28:51.988Z,7.65
2023-01-17T19:31:18.267Z,6.72
2023-01-17T19:33:44.599Z,6.35
2023-01-17T19:36:10.834Z,5.25
2023-01-17T19:38:37.278Z,6.07
2023-01-17T19:41:03.479Z,7.88
2023-01-17T19:43:29.684Z,11.00
2023-01-17T19:45:55.972Z,9.57
2023-01-17T19:48:22.171Z,12.05
2023-01-17T19:50:48.416Z,4.35
2023-01-17T19:53:14.627Z,3.75
2023-01-17T19:55:40.852Z,3.60
2023-01-17T19:58:06.962Z,4.10
2023-01-17T20:00:33.153Z,4.28
2023-01-17T20:02:59.439Z,4.47
2023-01-17T20:08:18.872Z,4.18
2023-01-17T20:10:45.050Z,3.05
2023-01-17T20:13:12.823Z,3.15
2023-01-17T20:15:39.012Z,2.90
2023-01-17T20:18:07.499Z,2.65
2023-01-17T20:20:33.694Z,2.90
2023-01-17T20:22:59.877Z,3.60
2023-01-17T20:25:29.838Z,3.20
2023-01-17T20:27:56.340Z,2.10
2023-01-17T20:30:22.775Z,1.95
2023-01-17T20:32:49.079Z,2.20
2023-01-17T20:35:15.271Z,2.95
2023-01-17T20:37:41.682Z,2.22
2023-01-17T20:40:07.861Z,2.33
2023-01-17T20:42:34.036Z,2.20
2023-01-17T20:45:00.245Z,2.83
2023-01-17T20:47:26.429Z,2.97
2023-01-17T20:49:52.587Z,2.75
2023-01-17T20:52:22.618Z,2.33
2023-01-17T20:54:48.796Z,3.10
2023-01-17T20:57:15.057Z,2.78
2023-01-17T20:59:41.369Z,2.83
2023-01-17T21:02:16.678Z,3.03
2023-01-17T21:04:42.973Z,3.08
2023-01-17T21:07:09.151Z,3.10
2023-01-17T21:09:35.417Z,3.22
2023-01-17T21:12:01.595Z,3.38
2023-01-17T21:14:27.746Z,3.83
2023-01-17T21:16:54.216Z,3.50
2023-01-17T21:19:20.802Z,3.65
2023-01-17T21:21:57.542Z,3.13
2023-01-17T21:27:13.866Z,2.60
2023-01-17T21:29:40.179Z,2.92
2023-01-17T21:32:06.335Z,2.88
2023-01-17T21:34:32.734Z,3.17
2023-01-17T21:36:58.870Z,3.08
2023-01-17T21:39:25.067Z,3.38
2023-01-17T21:41:51.176Z,3.17
2023-01-17T21:44:17.413Z,3.28
2023-01-17T21:46:47.208Z,3.15
2023-01-17T21:49:13.521Z,3.60
2023-01-17T21:51:39.750Z,2.80
2023-01-17T21:54:05.921Z,3.33
2023-01-17T21:56:32.104Z,3.60
2023-01-17T21:58:58.284Z,3.83
2023-01-17T22:01:24.536Z,3.22
2023-01-17T22:03:50.744Z,3.00
2023-01-17T22:06:16.907Z,3.45
2023-01-17T22:08:43.108Z,2.97
2023-01-17T22:11:09.248Z,2.85
2023-01-17T22:13:35.482Z,2.85
2023-01-17T22:16:01.674Z,3.30
2023-01-17T22:18:32.100Z,2.20
2023-01-17T22:20:58.474Z,2.33
2023-01-17T22:23:24.778Z,2.22
2023-01-17T22:25:50.956Z,3.10
2023-01-17T22:28:17.096Z,2.50
2023-01-17T22:30:49.291Z,2.70
2023-01-17T22:33:15.572Z,2.55
2023-01-17T22:35:41.736Z,3.33
2023-01-17T22:38:07.885Z,3.08
2023-01-17T22:40:34.054Z,3.95
2023-01-17T22:43:00.377Z,2.95
2023-01-17T22:45:26.569Z,3.15
2023-01-17T22:47:54.179Z,2.85
2023-01-17T22:50:20.342Z,3.08
2023-01-17T22:52:46.484Z,3.38
2023-01-17T22:55:12.684Z,3.60
2023-01-17T22:57:38.906Z,3.22
2023-01-17T23:00:05.108Z,3.05
2023-01-17T23:02:31.272Z,3.97
2023-01-17T23:04:57.427Z,3.30
2023-01-17T23:07:23.590Z,3.35
2023-01-17T23:09:49.821Z,3.03
2023-01-17T23:12:17.950Z,2.80
2023-01-17T23:14:44.081Z,2.85
2023-01-17T23:17:10.258Z,3.28
2023-01-17T23:19:36.395Z,3.55
2023-01-17T23:22:02.579Z,3.03
2023-01-17T23:24:28.852Z,3.80
2023-01-17T23:26:55.017Z,3.67
2023-01-17T23:29:21.183Z,3.60
2023-01-17T23:31:52.329Z,3.72
2023-01-17T23:34:18.548Z,3.55
2023-01-17T23:36:44.668Z,3.42
2023-01-17T23:39:10.808Z,3.20
2023-01-17T23:41:36.989Z,3.45
2023-01-17T23:44:03.354Z,3.85
2023-01-17T23:46:33.577Z,3.30
2023-01-17T23:48:59.792Z,3.70
2023-01-17T23:51:25.988Z,3.05
2023-01-17T23:53:52.140Z,3.60
2023-01-17T23:56:18.295Z,3.42
2023-01-17T23:58:44.474Z,3.22
